Historique des mesures à Cassis (13260), France
Quotidien Résumé Octobre 4, 2018 Unités:  Métrique    US   Métrique/US
« Précédent (Jour)
Suivant (Jour) »
Quotidien Hebdomadaire Mensuel Annuel Période au choix
  Maximum: Minimum: Moyenne:
Température: TemperatureC °C 16.9 °C 20.3 °C
Point de rosée: DewpointC °C 7.5 °C 9.7 °C
Humidité: Humidity % 46 % 48 %
Vitesse du vent: 0 km/h 0 km/h 2.6 km/h
Rafales: 0 km/h - -
Vent:- - West
Pression: PressurehPa hPa 1014.3 hPa -
Précipitations: 0.0 mm    
Historical Graphs
 
 
Mesures pour : Octobre 4, 2018
Heure Temperature Point de rosée Pression Vent Vitesse du vent Rafales Humidité Pluie (par heure) Conditions
TemperatureC °C DewpointC °C PressurehPa hPa Calm     Humidity % HourlyPrecipMM mm SoftwareType W/m2
00:10 19.6 °C 8.6 °C 1014.3 hPa NNW 4 km/h 7.6 km/h 49 % 0.0 mm open2300-1.11 W/m2
01:10 19.1 °C 7.5 °C 1014.4 hPa West 3.5 km/h 3.5 km/h 47 % 0.0 mm open2300-1.11 W/m2
02:10 19.2 °C 7.9 °C 1014.6 hPa NNW 4.7 km/h 4.7 km/h 48 % 0.0 mm open2300-1.11 W/m2
03:10 19.0 °C 8.1 °C 1014.9 hPa Calm     49 % 0.0 mm open2300-1.11 W/m2
04:10 17.7 °C 7.7 °C 1014.9 hPa NNW 3.5 km/h 5.1 km/h 52 % 0.0 mm open2300-1.11 W/m2
05:10 18.1 °C 8.3 °C 1014.3 hPa NNW 1.8 km/h 9.3 km/h 53 % 0.0 mm open2300-1.11 W/m2
06:10 17.6 °C 7.9 °C 1014.4 hPa Calm   2.3 km/h 53 % 0.0 mm open2300-1.11 W/m2
07:10 17.4 °C 7.7 °C 1015.2 hPa NW 3.5 km/h 3.5 km/h 53 % 0.0 mm open2300-1.11 W/m2
08:10 16.9 °C 7.5 °C 1015.8 hPa NNW 2.3 km/h 2.3 km/h 54 % 0.0 mm open2300-1.11 W/m2
09:10 18.9 °C 9.1 °C 1016.2 hPa Calm     53 % 0.0 mm open2300-1.11 W/m2
10:10 20.8 °C 9.7 °C 1016.8 hPa Calm     49 % 0.0 mm open2300-1.11 W/m2
11:10 22.2 °C 12.7 °C 1017.2 hPa Calm   7.6 km/h 55 % 0.0 mm open2300-1.11 W/m2
12:10 23.8 °C 12.1 °C 1017.3 hPa South 8 km/h 12.2 km/h 48 % 0.0 mm open2300-1.11 W/m2
13:10 24.8 °C 12.4 °C 1017.5 hPa West 3.5 km/h 4.7 km/h 46 % 0.0 mm open2300-1.11 W/m2
14:10 24.9 °C 12.8 °C 1016.9 hPa South 10.5 km/h 10.5 km/h 47 % 0.0 mm open2300-1.11 W/m2
15:10 25.3 °C 13.1 °C 1016.8 hPa ESE 5.1 km/h 7.6 km/h 47 % 0.0 mm open2300-1.11 W/m2
16:10 25.4 °C 12.9 °C 1016.5 hPa SSE 4.7 km/h 8.7 km/h 46 % 0.0 mm open2300-1.11 W/m2
17:10 25.2 °C 12.7 °C 1016.4 hPa Calm   4.7 km/h 46 % 0.0 mm open2300-1.11 W/m2
18:10 24.5 °C 12.4 °C 1016.6 hPa West 3.5 km/h 8 km/h 47 % 0.0 mm open2300-1.11 W/m2
19:10 23.1 °C 11.8 °C 1016.8 hPa Calm     49 % 0.0 mm open2300-1.11 W/m2
20:10 21.3 °C 11.3 °C 1017.4 hPa NW 5.1 km/h 5.1 km/h 53 % 0.0 mm open2300-1.11 W/m2
21:10 21.1 °C 10.0 °C 1017.6 hPa Calm     49 % 0.0 mm open2300-1.11 W/m2
22:10 20.9 °C 9.1 °C 1017.8 hPa Calm     47 % 0.0 mm open2300-1.11 W/m2
23:10 20.8 °C 9.7 °C 1017.8 hPa Calm     49 % 0.0 mm open2300-1.11 W/m2
Observations météo à CASSIS
WU-History script by Weather Underground - 1 mb